LFSN/ENC METAR and TAF weather

Enter ICAO airport designator
Station Type Date Time Source
LFSN METAR 2022/09/26 09:30 UTC NOAA

LFSN 260930Z AUTO 22011KT 190V250 9999 SCT026 BKN046 BKN110 15/09 Q1008


Station Type Date Time Source
LFSN Decoded METAR 2022/09/26 09:30 UTC NOAA

Nancy / Essey, France (LFSN) 48-41N 006-13E 217M
Sep 26, 2022 - 05:30 AM EDT / 2022.09.26 0930 UTC
Wind: from the SW (220 degrees) at 13 MPH (11 KT) (direction variable):0
Visibility: greater than 7 mile(s):0
Sky conditions: mostly cloudy
Temperature: 59 F (15 C)
Dew Point: 48 F (9 C)
Relative Humidity: 67%
Pressure (altimeter): 29.77 in. Hg (1008 hPa)
ob: LFSN 260930Z AUTO 22011KT 190V250 9999 SCT026 BKN046 BKN110 15/09 Q1008
cycle: 9

Station Type Date Time Source
LFSN TAF 2012/03/14 16:58 UTC NOAA

TAF LFSN 141600Z 1416/1512 CNL

Example: see airport list